createdAt,value
2023-03-21T04:37:23.622Z,98211.54
2023-03-21T04:39:56.490Z,98214.15
2023-03-21T04:42:28.634Z,98214.73
2023-03-21T04:45:06.980Z,98215.04
2023-03-21T04:47:42.163Z,98219.81
2023-03-21T04:50:15.942Z,98223.98
2023-03-21T04:52:50.747Z,98225.88
2023-03-21T04:55:23.110Z,98229.02
2023-03-21T04:57:59.776Z,98228.31
2023-03-21T05:00:32.252Z,98224.98
2023-03-21T05:03:09.808Z,98229.80
2023-03-21T05:05:42.070Z,98231.92
2023-03-21T05:08:14.769Z,98228.13
2023-03-21T05:10:47.230Z,98226.70
2023-03-21T05:13:19.367Z,98221.47
2023-03-21T05:15:52.703Z,98224.91
2023-03-21T05:18:26.476Z,98223.11
2023-03-21T05:21:12.276Z,98223.02
2023-03-21T05:23:44.716Z,98222.40
2023-03-21T05:26:16.814Z,98220.11
2023-03-21T05:28:59.155Z,98215.30
2023-03-21T05:31:31.152Z,98214.90
2023-03-21T05:34:11.781Z,98210.13
2023-03-21T05:36:43.849Z,98214.42
2023-03-21T05:39:19.705Z,98211.36
2023-03-21T05:42:02.352Z,98214.27
2023-03-21T05:44:35.537Z,98213.33
2023-03-21T05:47:09.960Z,98216.32
2023-03-21T05:49:47.266Z,98214.98
2023-03-21T05:52:19.799Z,98214.86
2023-03-21T05:54:52.677Z,98223.52
2023-03-21T05:57:28.974Z,98230.92
2023-03-21T06:00:10.195Z,98232.48
2023-03-21T06:02:51.350Z,98236.61
2023-03-21T06:05:47.140Z,98238.68
2023-03-21T06:08:26.852Z,98241.96
2023-03-21T06:10:58.979Z,98242.13
2023-03-21T06:13:32.948Z,98243.16
2023-03-21T06:16:05.455Z,98245.13
2023-03-21T06:18:38.770Z,98243.47
2023-03-21T06:21:23.885Z,98246.85
2023-03-21T06:23:58.289Z,98248.63
2023-03-21T06:26:30.321Z,98250.86
2023-03-21T06:29:02.351Z,98252.20
2023-03-21T06:31:35.691Z,98255.89
2023-03-21T06:34:10.481Z,98260.08
2023-03-21T06:36:46.811Z,98258.02
2023-03-21T06:39:19.344Z,98260.90
2023-03-21T06:41:54.428Z,98262.80
2023-03-21T06:44:27.020Z,98262.66
2023-03-21T06:47:07.587Z,98262.40
2023-03-21T06:49:41.571Z,98264.72
2023-03-21T06:52:14.958Z,98261.94
2023-03-21T06:54:47.269Z,98262.30
2023-03-21T06:57:22.229Z,98267.90
2023-03-21T06:59:57.366Z,98263.94
2023-03-21T07:02:30.050Z,98268.64
2023-03-21T07:05:09.257Z,98267.74
2023-03-21T07:07:41.837Z,98272.11
2023-03-21T07:10:15.829Z,98270.61
2023-03-21T07:12:55.142Z,98275.36
2023-03-21T07:15:39.696Z,98275.67
2023-03-21T07:18:12.388Z,98277.73
2023-03-21T07:20:48.060Z,98277.18
2023-03-21T07:23:20.925Z,98279.05
2023-03-21T07:25:54.567Z,98282.51
2023-03-21T07:28:26.728Z,98285.38
2023-03-21T07:31:00.505Z,98284.01
2023-03-21T07:33:34.084Z,98284.48
2023-03-21T07:36:11.000Z,98283.98
2023-03-21T07:38:43.501Z,98285.57
2023-03-21T07:43:48.348Z,98287.55
2023-03-21T07:46:20.411Z,98286.68
2023-03-21T07:48:53.828Z,98286.15
2023-03-21T07:51:27.382Z,98288.55
2023-03-21T07:53:59.825Z,98288.41
2023-03-21T07:56:31.916Z,98293.59
2023-03-21T07:59:05.559Z,98291.42
2023-03-21T08:01:37.541Z,98296.35
2023-03-21T08:04:09.679Z,98298.13
2023-03-21T08:06:43.672Z,98296.02
2023-03-21T08:09:15.793Z,98298.24
2023-03-21T08:11:48.011Z,98298.70
2023-03-21T08:14:20.094Z,98300.91
2023-03-21T08:16:52.193Z,98301.42
2023-03-21T08:19:27.198Z,98303.80
2023-03-21T08:22:01.023Z,98300.11
2023-03-21T08:24:34.390Z,98306.86
2023-03-21T08:27:06.692Z,98305.02
2023-03-21T08:29:42.491Z,98304.75
2023-03-21T08:32:14.696Z,98307.06
2023-03-21T08:34:46.946Z,98307.52
2023-03-21T08:37:19.200Z,98310.41
2023-03-21T08:39:51.291Z,98309.86
2023-03-21T08:42:23.965Z,98316.11
2023-03-21T08:44:56.093Z,98316.16
2023-03-21T08:47:28.474Z,98318.23
2023-03-21T08:50:01.043Z,98321.11
2023-03-21T08:52:33.133Z,98321.07
2023-03-21T08:55:05.838Z,98324.58
2023-03-21T08:57:38.706Z,98325.25
2023-03-21T09:00:17.434Z,98327.02
2023-03-21T09:02:52.878Z,98326.85
2023-03-21T09:05:26.009Z,98327.48
2023-03-21T09:07:58.090Z,98327.81
2023-03-21T09:10:30.452Z,98333.35
2023-03-21T09:13:02.461Z,98332.71
2023-03-21T09:15:35.470Z,98331.84
2023-03-21T09:18:15.797Z,98329.36
2023-03-21T09:20:50.536Z,98331.47
2023-03-21T09:23:23.000Z,98331.48
2023-03-21T09:25:55.411Z,98333.39
2023-03-21T09:28:28.378Z,98333.15
2023-03-21T09:31:02.807Z,98335.38
2023-03-21T09:33:35.392Z,98331.58
2023-03-21T09:36:11.854Z,98332.31
2023-03-21T09:38:45.726Z,98334.96
2023-03-21T09:41:32.372Z,98338.11
2023-03-21T09:44:22.941Z,98336.70
2023-03-21T09:46:56.976Z,98338.34
2023-03-21T09:49:34.616Z,98340.18
2023-03-21T09:52:14.570Z,98340.28
2023-03-21T09:54:47.273Z,98347.25
2023-03-21T09:57:31.889Z,98343.04
2023-03-21T10:00:12.266Z,98339.26
2023-03-21T10:02:48.056Z,98334.77
2023-03-21T10:05:24.513Z,98335.73
2023-03-21T10:08:04.901Z,98341.54
2023-03-21T10:10:37.111Z,98333.88
2023-03-21T10:13:16.862Z,98336.63
2023-03-21T10:15:49.149Z,98338.28
2023-03-21T10:18:27.973Z,98340.79
2023-03-21T10:21:00.720Z,98337.39
2023-03-21T10:23:34.391Z,98338.83
2023-03-21T10:26:10.306Z,98333.13
2023-03-21T10:28:53.181Z,98334.60
2023-03-21T10:31:27.504Z,98335.13
2023-03-21T10:34:07.872Z,98337.36
2023-03-21T10:36:39.954Z,98339.11
2023-03-21T10:39:23.083Z,98338.22
2023-03-21T10:41:55.510Z,98339.89
2023-03-21T10:44:32.760Z,98339.25
2023-03-21T10:47:09.933Z,98343.67
2023-03-21T10:50:06.178Z,98345.20
2023-03-21T10:52:36.838Z,98348.33
2023-03-21T10:55:21.658Z,98346.55
2023-03-21T10:58:00.639Z,98349.02
2023-03-21T11:00:39.030Z,98339.45
2023-03-21T11:03:24.341Z,98337.45
2023-03-21T11:06:02.959Z,98333.69
2023-03-21T11:08:42.930Z,98336.14
2023-03-21T11:11:23.493Z,98330.20
2023-03-21T11:13:58.937Z,98326.48
2023-03-21T11:16:39.014Z,98326.87
2023-03-21T11:19:20.894Z,98320.85
2023-03-21T11:21:54.196Z,98318.45
2023-03-21T11:24:31.977Z,98319.56
2023-03-21T11:27:09.626Z,98322.09
2023-03-21T11:29:47.035Z,98319.98
2023-03-21T11:32:25.009Z,98318.90
2023-03-21T11:35:02.291Z,98318.20
2023-03-21T11:37:40.924Z,98322.58
2023-03-21T11:40:23.734Z,98316.39
2023-03-21T11:43:00.124Z,98307.89
2023-03-21T11:45:35.712Z,98317.77
2023-03-21T11:48:15.412Z,98321.30
2023-03-21T11:50:51.557Z,98318.77
2023-03-21T11:53:32.419Z,98314.26
2023-03-21T11:56:17.696Z,98313.38
2023-03-21T11:59:02.239Z,98313.19
2023-03-21T12:01:47.601Z,98317.53
2023-03-21T12:04:39.700Z,98318.64
2023-03-21T12:07:28.936Z,98313.90
2023-03-21T12:10:21.684Z,98315.77
2023-03-21T12:13:02.590Z,98315.64
2023-03-21T12:15:41.799Z,98316.48
2023-03-21T12:18:24.520Z,98312.42
2023-03-21T12:20:59.002Z,98311.51
2023-03-21T12:23:53.698Z,98311.20
2023-03-21T12:26:29.108Z,98310.67
2023-03-21T12:29:19.464Z,98309.63
2023-03-21T12:32:06.066Z,98309.88
2023-03-21T12:35:08.965Z,98309.17
2023-03-21T12:37:49.863Z,98305.33
2023-03-21T12:40:39.017Z,98299.89
2023-03-21T12:43:39.560Z,98295.44
2023-03-21T12:46:20.457Z,98297.19
2023-03-21T12:48:57.578Z,98291.96
2023-03-21T12:54:40.921Z,98286.73
2023-03-21T12:57:18.582Z,98288.43
2023-03-21T12:59:55.604Z,98282.42
2023-03-21T13:02:34.333Z,98283.42
2023-03-21T13:05:18.080Z,98281.63
2023-03-21T13:07:55.077Z,98280.46
2023-03-21T13:10:27.757Z,98278.90
2023-03-21T13:13:10.331Z,98273.92
2023-03-21T13:15:56.815Z,98280.04
2023-03-21T13:18:42.172Z,98280.09
2023-03-21T13:21:21.784Z,98280.81
2023-03-21T13:24:03.739Z,98275.26
2023-03-21T13:26:41.275Z,98274.83
2023-03-21T13:29:23.589Z,98276.94
2023-03-21T13:31:58.286Z,98280.30
2023-03-21T13:34:31.345Z,98278.58
2023-03-21T13:37:04.088Z,98272.20
2023-03-21T13:39:38.066Z,98273.21
2023-03-21T13:42:23.657Z,98271.14
2023-03-21T13:45:03.539Z,98268.98
2023-03-21T13:47:43.309Z,98269.30
2023-03-21T13:50:54.857Z,98271.24
2023-03-21T13:53:35.549Z,98269.58
2023-03-21T13:56:24.521Z,98267.63
2023-03-21T13:59:04.499Z,98266.45
2023-03-21T14:01:42.589Z,98267.40
2023-03-21T14:04:24.055Z,98263.54
2023-03-21T14:07:08.194Z,98265.27
2023-03-21T14:09:43.996Z,98264.31
2023-03-21T14:12:19.770Z,98265.96
2023-03-21T14:14:55.230Z,98262.27
2023-03-21T14:17:31.042Z,98256.34
2023-03-21T14:20:11.838Z,98256.01
2023-03-21T14:22:47.491Z,98248.88
2023-03-21T14:25:21.578Z,98249.63
2023-03-21T14:27:56.703Z,98250.61
2023-03-21T14:30:33.455Z,98241.57
2023-03-21T14:33:10.349Z,98241.56
2023-03-21T14:35:43.719Z,98240.14
2023-03-21T14:38:23.789Z,98237.17
2023-03-21T14:40:59.006Z,98236.88
2023-03-21T14:43:34.248Z,98232.36
2023-03-21T14:46:06.915Z,98223.77
2023-03-21T14:48:39.037Z,98222.79
2023-03-21T14:51:14.348Z,98226.96
2023-03-21T14:53:47.366Z,98226.01
2023-03-21T14:56:25.285Z,98231.91
2023-03-21T14:58:57.483Z,98235.30
2023-03-21T15:01:32.605Z,98237.34
2023-03-21T15:04:07.880Z,98239.92
2023-03-21T15:06:57.134Z,98234.59
2023-03-21T15:09:31.693Z,98237.36
2023-03-21T15:12:09.110Z,98235.10
2023-03-21T15:14:41.763Z,98234.48
2023-03-21T15:17:13.990Z,98235.70
2023-03-21T15:19:48.639Z,98233.35
2023-03-21T15:22:31.517Z,98234.17
2023-03-21T15:25:07.760Z,98230.16
2023-03-21T15:27:44.770Z,98231.48
2023-03-21T15:30:28.048Z,98229.54
2023-03-21T15:33:10.588Z,98230.33
2023-03-21T15:35:46.072Z,98229.45
2023-03-21T15:38:32.533Z,98226.27
2023-03-21T15:41:30.194Z,98229.27
2023-03-21T15:44:14.752Z,98224.84
2023-03-21T15:46:49.885Z,98223.92
2023-03-21T15:49:29.004Z,98225.61
2023-03-21T15:52:13.949Z,98227.05
2023-03-21T15:54:50.301Z,98222.55
2023-03-21T15:57:25.289Z,98217.37
2023-03-21T16:00:05.876Z,98219.42
2023-03-21T16:02:45.682Z,98214.27
2023-03-21T16:05:27.653Z,98216.73
2023-03-21T16:08:08.102Z,98217.55
2023-03-21T16:10:42.890Z,98221.26
2023-03-21T16:13:15.255Z,98221.70
2023-03-21T16:15:50.193Z,98222.11
2023-03-21T16:18:22.333Z,98225.12
2023-03-21T16:20:57.422Z,98222.11
2023-03-21T16:23:32.121Z,98219.20
2023-03-21T16:26:06.811Z,98220.48
2023-03-21T16:28:42.571Z,98224.27
2023-03-21T16:31:17.760Z,98228.16
2023-03-21T16:33:51.086Z,98229.86
2023-03-21T16:36:25.041Z,98230.90
2023-03-21T16:39:00.286Z,98233.41
2023-03-21T16:41:32.611Z,98236.27
2023-03-21T16:44:04.688Z,98234.96
2023-03-21T16:46:37.037Z,98233.56
2023-03-21T16:49:21.708Z,98236.25
2023-03-21T16:51:55.039Z,98237.73
2023-03-21T16:54:27.095Z,98246.39
2023-03-21T16:57:30.652Z,98246.39
2023-03-21T17:00:09.634Z,98249.16
2023-03-21T17:02:42.856Z,98253.48
2023-03-21T17:05:15.508Z,98256.77
2023-03-21T17:07:47.898Z,98256.42
2023-03-21T17:10:23.306Z,98256.82
2023-03-21T17:12:56.923Z,98259.80
2023-03-21T17:15:29.441Z,98260.61
2023-03-21T17:18:01.522Z,98265.11
2023-03-21T17:20:40.313Z,98262.95
2023-03-21T17:23:14.719Z,98257.70
2023-03-21T17:25:50.180Z,98264.73
2023-03-21T17:28:27.849Z,98265.89
2023-03-21T17:31:02.085Z,98266.30
2023-03-21T17:33:37.236Z,98267.04
2023-03-21T17:36:16.269Z,98271.27
2023-03-21T17:38:49.468Z,98272.66
2023-03-21T17:41:24.544Z,98272.02
2023-03-21T17:44:09.688Z,98274.55
2023-03-21T17:46:50.280Z,98277.03
2023-03-21T17:49:24.376Z,98279.54
2023-03-21T17:51:57.238Z,98280.38
2023-03-21T17:54:29.473Z,98280.99
2023-03-21T17:57:04.945Z,98280.70
2023-03-21T17:59:37.562Z,98285.23
2023-03-21T18:02:10.888Z,98284.89
2023-03-21T18:04:43.463Z,98283.28
2023-03-21T18:07:28.688Z,98284.54
2023-03-21T18:10:17.184Z,98282.97
2023-03-21T18:12:56.175Z,98285.51
2023-03-21T18:15:30.747Z,98284.92
2023-03-21T18:18:05.915Z,98285.70
2023-03-21T18:20:52.168Z,98287.63
2023-03-21T18:23:29.010Z,98292.07
2023-03-21T18:26:01.771Z,98295.04
2023-03-21T18:28:33.974Z,98294.20
2023-03-21T18:31:12.593Z,98294.45
2023-03-21T18:33:47.501Z,98292.89
2023-03-21T18:36:25.339Z,98295.09
2023-03-21T18:38:58.943Z,98293.86
2023-03-21T18:41:31.177Z,98293.38
2023-03-21T18:44:13.001Z,98294.59
2023-03-21T18:46:50.791Z,98294.86
2023-03-21T18:52:16.894Z,98289.19
2023-03-21T18:54:49.392Z,98287.77
2023-03-21T18:57:38.682Z,98286.83
2023-03-21T19:00:17.508Z,98282.35
2023-03-21T19:03:09.833Z,98284.87
2023-03-21T19:05:57.696Z,98286.89
2023-03-21T19:08:31.796Z,98281.97
2023-03-21T19:11:06.403Z,98279.91
2023-03-21T19:13:39.345Z,98283.31
2023-03-21T19:16:14.865Z,98284.31
2023-03-21T19:18:54.958Z,98283.52
2023-03-21T19:21:29.711Z,98290.78
2023-03-21T19:24:26.438Z,98294.73
2023-03-21T19:26:54.408Z,98303.66
2023-03-21T19:29:27.218Z,98301.06
2023-03-21T19:32:02.801Z,98300.02
2023-03-21T19:34:35.661Z,98301.33
2023-03-21T19:37:08.133Z,98306.39
2023-03-21T19:39:44.126Z,98306.41
2023-03-21T19:42:23.514Z,98306.48
2023-03-21T19:44:59.193Z,98305.77
2023-03-21T19:47:31.903Z,98306.88
2023-03-21T19:53:03.856Z,98305.01
2023-03-21T19:55:36.519Z,98306.98
2023-03-21T19:58:09.228Z,98306.27
2023-03-21T20:00:41.446Z,98307.27
2023-03-21T20:03:23.797Z,98305.52
2023-03-21T20:06:03.842Z,98304.98
2023-03-21T20:09:13.699Z,98305.75
2023-03-21T20:11:32.944Z,98299.77
2023-03-21T20:14:05.718Z,98296.83
2023-03-21T20:16:44.123Z,98300.80
2023-03-21T20:19:22.982Z,98298.52
2023-03-21T20:21:59.795Z,98296.89
2023-03-21T20:24:44.492Z,98294.88
2023-03-21T20:27:25.495Z,98298.09
2023-03-21T20:30:09.659Z,98299.41
2023-03-21T20:32:47.108Z,98299.13
2023-03-21T20:35:39.888Z,98301.02
2023-03-21T20:38:13.590Z,98298.25
2023-03-21T20:40:46.249Z,98299.80
2023-03-21T20:44:08.867Z,98299.45
2023-03-21T20:46:18.972Z,98302.23
2023-03-21T20:48:59.867Z,98302.66
2023-03-21T20:54:27.714Z,98301.67
2023-03-21T20:57:04.916Z,98302.97
2023-03-21T20:59:40.066Z,98299.85
2023-03-21T21:02:13.605Z,98298.84
2023-03-21T21:05:12.216Z,98296.63
2023-03-21T21:07:40.141Z,98289.67
2023-03-21T21:10:15.258Z,98291.12
2023-03-21T21:12:47.426Z,98291.45
2023-03-21T21:15:19.620Z,98291.25
2023-03-21T21:18:05.427Z,98289.08
2023-03-21T21:20:42.554Z,98288.34
2023-03-21T21:23:15.024Z,98290.86
2023-03-21T21:25:53.387Z,98290.99
2023-03-21T21:28:29.504Z,98288.21
2023-03-21T21:31:13.592Z,98283.48
2023-03-21T21:33:50.162Z,98284.91
2023-03-21T21:36:23.336Z,98283.39
2023-03-21T21:38:56.127Z,98281.80
2023-03-21T21:42:13.975Z,98280.52
2023-03-21T21:44:47.482Z,98282.07
2023-03-21T21:47:19.626Z,98284.15
2023-03-21T21:49:51.649Z,98282.22
2023-03-21T21:52:24.307Z,98278.93
2023-03-21T21:54:56.337Z,98278.64
2023-03-21T21:57:30.582Z,98272.58
2023-03-21T22:00:06.414Z,98272.55
2023-03-21T22:02:44.143Z,98270.10
2023-03-21T22:05:19.098Z,98272.64
2023-03-21T22:07:53.658Z,98274.26
2023-03-21T22:10:28.526Z,98277.25
2023-03-21T22:13:00.675Z,98274.21
2023-03-21T22:15:33.392Z,98270.83
2023-03-21T22:18:07.196Z,98269.65
2023-03-21T22:20:39.331Z,98268.63
2023-03-21T22:23:12.185Z,98268.20
2023-03-21T22:25:49.605Z,98270.88
2023-03-21T22:28:25.825Z,98270.52
2023-03-21T22:30:58.318Z,98273.02
2023-03-21T22:33:33.547Z,98278.91
2023-03-21T22:36:05.946Z,98281.65
2023-03-21T22:38:38.416Z,98279.11
2023-03-21T22:41:11.211Z,98276.95
2023-03-21T22:43:43.177Z,98274.55
2023-03-21T22:46:15.673Z,98277.43
2023-03-21T22:48:48.801Z,98276.11
2023-03-21T22:51:21.158Z,98270.71
2023-03-21T22:53:53.118Z,98267.35
2023-03-21T22:56:25.282Z,98260.13
2023-03-21T22:58:58.469Z,98252.58
2023-03-21T23:01:31.598Z,98245.10
2023-03-21T23:04:03.675Z,98244.34
2023-03-21T23:06:38.767Z,98243.97
2023-03-21T23:09:11.465Z,98245.98
2023-03-21T23:11:45.446Z,98244.78
2023-03-21T23:14:19.492Z,98242.19
2023-03-21T23:16:52.713Z,98240.59
2023-03-21T23:19:28.876Z,98240.02
2023-03-21T23:22:01.644Z,98241.51
2023-03-21T23:24:35.587Z,98238.11
2023-03-21T23:27:07.710Z,98238.20
2023-03-21T23:29:39.728Z,98237.30
2023-03-21T23:35:21.854Z,98237.36
2023-03-21T23:37:53.857Z,98239.45
2023-03-21T23:43:38.720Z,98237.98
2023-03-21T23:46:12.778Z,98240.00
2023-03-21T23:48:45.839Z,98236.58
2023-03-21T23:51:19.208Z,98231.14
2023-03-21T23:53:56.640Z,98231.59
2023-03-21T23:56:32.254Z,98233.81
2023-03-21T23:59:05.226Z,98231.73
